createdAt,value
2023-01-03T00:00:13.881Z,5.81
2023-01-03T00:03:18.207Z,5.81
2023-01-03T00:06:21.735Z,5.79
2023-01-03T00:09:24.112Z,5.72
2023-01-03T00:12:30.855Z,5.70
2023-01-03T00:15:36.503Z,5.64
2023-01-03T00:18:38.060Z,5.64
2023-01-03T00:21:39.715Z,5.64
2023-01-03T00:24:41.253Z,5.67
2023-01-03T00:27:42.784Z,5.66
2023-01-03T00:30:44.310Z,5.60
2023-01-03T00:33:45.823Z,5.48
2023-01-03T00:36:47.450Z,5.45
2023-01-03T00:39:48.996Z,5.39
2023-01-03T00:43:09.161Z,5.36
2023-01-03T00:46:11.629Z,5.33
2023-01-03T00:49:13.095Z,5.36
2023-01-03T00:52:14.624Z,5.41
2023-01-03T00:55:16.225Z,5.43
2023-01-03T00:58:17.728Z,5.47
2023-01-03T01:01:22.007Z,5.50
2023-01-03T01:04:24.531Z,5.44
2023-01-03T01:07:26.048Z,5.41
2023-01-03T01:10:27.649Z,5.35
2023-01-03T01:13:32.602Z,5.31
2023-01-03T01:16:34.351Z,5.27
2023-01-03T01:19:37.939Z,5.23
2023-01-03T01:22:39.463Z,5.23
2023-01-03T01:25:40.973Z,5.18
2023-01-03T01:28:42.590Z,5.12
2023-01-03T01:31:44.761Z,5.08
2023-01-03T01:34:46.398Z,5.03
2023-01-03T01:37:47.955Z,5.01
2023-01-03T01:40:49.488Z,4.99
2023-01-03T01:44:14.835Z,4.97
2023-01-03T01:47:27.804Z,4.93
2023-01-03T01:50:58.680Z,4.87
2023-01-03T01:54:01.169Z,4.91
2023-01-03T01:57:02.697Z,4.99
2023-01-03T02:00:06.283Z,5.06
2023-01-03T02:03:08.017Z,5.07
2023-01-03T02:06:10.635Z,5.05
2023-01-03T02:09:12.041Z,5.03
2023-01-03T02:12:56.115Z,5.03
2023-01-03T02:15:57.571Z,4.98
2023-01-03T02:19:10.942Z,4.93
2023-01-03T02:22:31.271Z,4.88
2023-01-03T02:25:57.678Z,4.86
2023-01-03T02:29:17.859Z,4.81
2023-01-03T02:32:51.653Z,4.87
2023-01-03T02:35:55.241Z,4.92
2023-01-03T02:39:13.539Z,4.85
2023-01-03T02:42:58.641Z,4.75
2023-01-03T02:46:27.436Z,4.74
2023-01-03T02:49:58.477Z,4.74
2023-01-03T02:53:02.291Z,4.75
2023-01-03T02:56:09.619Z,4.77
2023-01-03T02:59:14.626Z,4.76
2023-01-03T03:02:16.261Z,4.72
2023-01-03T03:05:24.922Z,4.74
2023-01-03T03:08:26.442Z,4.67
2023-01-03T03:11:47.626Z,4.69
2023-01-03T03:14:50.373Z,4.70
2023-01-03T03:17:53.912Z,4.77
2023-01-03T03:21:14.022Z,4.71
2023-01-03T03:24:38.501Z,4.43
2023-01-03T03:28:01.621Z,4.30
2023-01-03T03:31:14.408Z,4.23
2023-01-03T03:34:27.893Z,4.22
2023-01-03T03:37:29.508Z,4.19
2023-01-03T03:40:51.343Z,4.14
2023-01-03T03:44:28.793Z,4.12
2023-01-03T03:47:36.162Z,4.13
2023-01-03T03:50:51.240Z,4.11
2023-01-03T03:53:52.781Z,4.12
2023-01-03T03:57:06.010Z,4.09
2023-01-03T04:00:19.577Z,4.01
2023-01-03T04:03:21.223Z,4.04
2023-01-03T04:06:28.475Z,4.11
2023-01-03T04:09:30.196Z,4.13
2023-01-03T04:12:31.727Z,4.10
2023-01-03T04:15:33.273Z,4.09
2023-01-03T04:18:34.862Z,4.16
2023-01-03T04:21:36.782Z,4.12
2023-01-03T04:24:38.369Z,4.11
2023-01-03T04:27:39.884Z,4.13
2023-01-03T04:30:41.417Z,3.99
2023-01-03T04:33:43.011Z,3.97
2023-01-03T04:36:44.568Z,3.95
2023-01-03T04:39:46.103Z,3.93
2023-01-03T04:43:06.218Z,3.88
2023-01-03T04:46:07.885Z,3.87
2023-01-03T04:49:09.724Z,3.81
2023-01-03T04:52:11.288Z,3.80
2023-01-03T04:55:13.214Z,3.78
2023-01-03T04:58:14.757Z,3.81
2023-01-03T05:01:16.405Z,3.85
2023-01-03T05:04:18.024Z,3.83
2023-01-03T05:07:19.578Z,3.79
2023-01-03T05:10:21.137Z,3.76
2023-01-03T05:13:22.778Z,3.77
2023-01-03T05:16:24.465Z,3.82
2023-01-03T05:19:26.885Z,3.86
2023-01-03T05:22:46.903Z,3.92
2023-01-03T05:25:51.329Z,3.98
2023-01-03T05:28:53.416Z,4.02
2023-01-03T05:31:55.059Z,4.04
2023-01-03T05:34:56.663Z,4.01
2023-01-03T05:37:58.167Z,3.99
2023-01-03T05:40:59.710Z,3.94
2023-01-03T05:44:01.230Z,3.85
2023-01-03T05:47:03.867Z,3.83
2023-01-03T05:50:05.486Z,3.77
2023-01-03T05:53:06.985Z,3.74
2023-01-03T05:56:08.554Z,3.71
2023-01-03T05:59:10.195Z,3.71
2023-01-03T06:02:11.829Z,3.73
2023-01-03T06:05:13.467Z,3.69
2023-01-03T06:08:15.013Z,3.67
2023-01-03T06:11:17.218Z,3.73
2023-01-03T06:14:20.076Z,3.78
2023-01-03T06:17:40.142Z,3.80
2023-01-03T06:20:41.689Z,3.70
2023-01-03T06:23:43.224Z,3.65
2023-01-03T06:26:44.820Z,3.60
2023-01-03T06:29:46.393Z,3.61
2023-01-03T06:32:48.002Z,3.62
2023-01-03T06:35:49.529Z,3.61
2023-01-03T06:38:51.104Z,3.65
2023-01-03T06:41:52.627Z,3.69
2023-01-03T06:45:12.503Z,3.70
2023-01-03T06:48:32.616Z,3.68
2023-01-03T06:51:52.648Z,3.69
2023-01-03T06:54:54.266Z,3.59
2023-01-03T06:57:55.978Z,3.55
2023-01-03T07:00:57.789Z,3.45
2023-01-03T07:03:59.637Z,3.38
2023-01-03T07:07:01.362Z,3.31
2023-01-03T07:10:02.993Z,3.18
2023-01-03T07:13:23.127Z,3.23
2023-01-03T07:16:26.246Z,3.31
2023-01-03T07:19:27.924Z,3.33
2023-01-03T07:22:29.471Z,3.36
2023-01-03T07:25:31.017Z,3.35
2023-01-03T07:28:33.004Z,3.37
2023-01-03T07:31:34.910Z,3.39
2023-01-03T07:34:36.565Z,3.36
2023-01-03T07:37:38.096Z,3.18
2023-01-03T07:40:39.750Z,3.24
2023-01-03T07:43:44.265Z,3.26
2023-01-03T07:46:45.910Z,3.26
2023-01-03T07:49:47.575Z,3.16
2023-01-03T07:52:49.100Z,3.07
2023-01-03T07:55:50.656Z,3.13
2023-01-03T07:58:52.196Z,3.15
2023-01-03T08:01:53.867Z,3.04
2023-01-03T08:04:55.643Z,3.02
2023-01-03T08:07:57.177Z,3.12
2023-01-03T08:11:17.274Z,3.07
2023-01-03T08:14:23.642Z,3.06
2023-01-03T08:17:27.562Z,3.09
2023-01-03T08:20:29.160Z,3.21
2023-01-03T08:23:30.874Z,3.28
2023-01-03T08:26:32.503Z,3.31
2023-01-03T08:29:34.052Z,3.38
2023-01-03T08:32:35.616Z,3.33
2023-01-03T08:35:38.220Z,3.19
2023-01-03T08:38:41.307Z,3.18
2023-01-03T08:41:44.110Z,3.15
2023-01-03T08:44:45.650Z,3.23
2023-01-03T08:47:47.215Z,3.25
2023-01-03T08:50:48.854Z,3.30
2023-01-03T08:53:50.502Z,3.34
2023-01-03T08:56:52.013Z,3.37
2023-01-03T08:59:53.572Z,3.50
2023-01-03T09:02:59.739Z,3.51
2023-01-03T09:06:02.438Z,3.59
2023-01-03T09:09:05.277Z,3.60
2023-01-03T09:12:06.840Z,3.75
2023-01-03T09:15:08.875Z,3.89
2023-01-03T09:18:10.442Z,3.96
2023-01-03T09:21:12.038Z,4.04
2023-01-03T09:24:13.648Z,3.99
2023-01-03T09:27:15.162Z,3.96
2023-01-03T09:30:16.838Z,4.04
2023-01-03T09:33:18.392Z,4.11
2023-01-03T09:36:19.953Z,4.12
2023-01-03T09:39:21.630Z,4.13
2023-01-03T09:42:43.238Z,4.00
2023-01-03T09:45:50.444Z,3.88
2023-01-03T09:48:52.420Z,3.96
2023-01-03T09:52:12.592Z,4.15
2023-01-03T09:55:45.412Z,4.18
2023-01-03T09:59:10.618Z,4.57
2023-01-03T10:02:49.138Z,4.93
2023-01-03T10:06:06.199Z,5.37
2023-01-03T10:09:40.129Z,6.02
2023-01-03T10:13:20.493Z,6.32
2023-01-03T10:16:48.137Z,7.24
2023-01-03T10:20:08.741Z,8.18
2023-01-03T10:23:10.338Z,10.18
2023-01-03T10:26:11.981Z,10.89
2023-01-03T10:29:13.521Z,10.46
2023-01-03T10:32:29.033Z,9.32
2023-01-03T10:35:34.610Z,10.18
2023-01-03T10:38:42.778Z,10.56
2023-01-03T10:41:48.820Z,10.04
2023-01-03T10:44:59.700Z,10.46
2023-01-03T10:48:01.531Z,10.57
2023-01-03T10:51:21.611Z,11.12
2023-01-03T10:54:29.523Z,11.06
2023-01-03T10:57:39.187Z,12.17
2023-01-03T11:00:40.881Z,12.22
2023-01-03T11:03:51.082Z,12.48
2023-01-03T11:07:16.988Z,12.70
2023-01-03T11:10:18.962Z,12.89
2023-01-03T11:13:22.657Z,12.63
2023-01-03T11:16:24.294Z,12.08
2023-01-03T11:19:27.588Z,10.56
2023-01-03T11:22:37.565Z,9.88
2023-01-03T11:25:45.326Z,9.07
2023-01-03T11:28:53.862Z,8.63
2023-01-03T11:32:07.459Z,8.29
2023-01-03T11:35:23.319Z,8.14
2023-01-03T11:38:51.007Z,8.02
2023-01-03T11:42:06.811Z,7.98
2023-01-03T11:45:33.628Z,7.93
2023-01-03T11:48:53.486Z,8.05
2023-01-03T11:52:10.101Z,8.12
2023-01-03T11:55:20.737Z,8.24
2023-01-03T11:58:37.373Z,8.41
2023-01-03T12:02:03.818Z,8.52
2023-01-03T12:05:23.344Z,8.41
2023-01-03T12:08:48.477Z,8.65
2023-01-03T12:12:11.057Z,8.45
2023-01-03T12:15:22.705Z,8.27
2023-01-03T12:18:49.055Z,8.20
2023-01-03T12:22:02.949Z,7.92
2023-01-03T12:25:16.458Z,7.67
2023-01-03T12:28:28.074Z,7.58
2023-01-03T12:31:33.171Z,7.38
2023-01-03T12:34:43.074Z,7.17
2023-01-03T12:37:45.067Z,7.15
2023-01-03T12:40:58.937Z,7.11
2023-01-03T12:44:08.129Z,6.94
2023-01-03T12:47:31.906Z,6.94
2023-01-03T12:50:39.588Z,6.89
2023-01-03T12:53:47.371Z,6.82
2023-01-03T12:57:47.536Z,6.76
2023-01-03T13:00:59.851Z,6.41
2023-01-03T13:04:11.807Z,6.49
2023-01-03T13:07:25.239Z,6.25
2023-01-03T13:10:28.438Z,6.41
2023-01-03T13:13:30.448Z,6.41
2023-01-03T13:16:48.849Z,6.42
2023-01-03T13:20:09.860Z,6.36
2023-01-03T13:23:34.322Z,6.33
2023-01-03T13:26:35.902Z,6.36
2023-01-03T13:29:41.831Z,6.30
2023-01-03T13:32:51.381Z,6.36
2023-01-03T13:35:57.626Z,6.35
2023-01-03T13:38:59.167Z,6.27
2023-01-03T13:42:01.119Z,6.24
2023-01-03T13:45:23.894Z,6.23
2023-01-03T13:48:31.942Z,6.20
2023-01-03T13:51:34.524Z,6.11
2023-01-03T13:54:54.800Z,6.07
2023-01-03T13:57:56.320Z,6.13
2023-01-03T14:01:06.243Z,6.15
2023-01-03T14:04:26.514Z,6.08
2023-01-03T14:07:49.566Z,6.13
2023-01-03T14:11:33.680Z,6.00
2023-01-03T14:14:37.559Z,6.05
2023-01-03T14:17:39.122Z,6.02
2023-01-03T14:20:43.719Z,5.88
2023-01-03T14:24:01.861Z,5.87
2023-01-03T14:27:17.003Z,5.81
2023-01-03T14:30:24.151Z,5.67
2023-01-03T14:33:31.438Z,5.64
2023-01-03T14:36:32.986Z,5.63
2023-01-03T14:42:34.888Z,5.56
2023-01-03T14:45:36.409Z,5.55
2023-01-03T14:48:38.026Z,5.47
2023-01-03T14:51:39.544Z,5.43
2023-01-03T14:54:44.256Z,5.36
2023-01-03T14:57:46.663Z,5.32
2023-01-03T15:00:48.234Z,5.34
2023-01-03T15:03:50.025Z,5.27
2023-01-03T15:07:09.494Z,5.22
2023-01-03T15:10:18.406Z,5.17
2023-01-03T15:13:23.378Z,5.16
2023-01-03T15:16:28.763Z,5.11
2023-01-03T15:19:30.611Z,5.05
2023-01-03T15:22:50.538Z,4.99
2023-01-03T15:25:53.163Z,4.96
2023-01-03T15:28:56.316Z,4.88
2023-01-03T15:31:58.600Z,4.83
2023-01-03T15:35:00.273Z,4.73
2023-01-03T15:38:01.997Z,4.58
2023-01-03T15:41:40.247Z,4.45
2023-01-03T15:44:41.887Z,4.31
2023-01-03T15:47:43.478Z,4.19
2023-01-03T15:50:48.232Z,4.09
2023-01-03T15:53:49.863Z,4.04
2023-01-03T15:56:55.223Z,3.99
2023-01-03T15:59:58.862Z,3.97
2023-01-03T16:03:01.799Z,3.88
2023-01-03T16:06:03.605Z,3.81
2023-01-03T16:09:05.103Z,3.80
2023-01-03T16:12:07.254Z,3.64
2023-01-03T16:15:11.577Z,3.57
2023-01-03T16:18:14.376Z,3.43
2023-01-03T16:21:15.908Z,3.42
2023-01-03T16:24:18.137Z,3.33
2023-01-03T16:27:21.884Z,3.27
2023-01-03T16:30:24.599Z,3.20
2023-01-03T16:33:28.655Z,3.15
2023-01-03T16:36:37.373Z,3.09
2023-01-03T16:39:45.691Z,3.04
2023-01-03T16:42:49.608Z,2.99
2023-01-03T16:45:51.811Z,2.95
2023-01-03T16:48:54.170Z,2.91
2023-01-03T16:51:57.959Z,2.89
2023-01-03T16:55:10.056Z,2.83
2023-01-03T16:58:12.828Z,2.83
2023-01-03T17:01:14.719Z,2.91
2023-01-03T17:04:17.382Z,2.88
2023-01-03T17:07:19.546Z,2.81
2023-01-03T17:10:23.673Z,2.57
2023-01-03T17:13:32.931Z,2.49
2023-01-03T17:16:35.676Z,2.50
2023-01-03T17:20:06.964Z,2.57
2023-01-03T17:23:00.122Z,2.54
2023-01-03T17:26:02.012Z,2.48
2023-01-03T17:29:04.998Z,2.39
2023-01-03T17:32:17.460Z,2.32
2023-01-03T17:35:19.386Z,2.30
2023-01-03T17:38:26.220Z,2.25
2023-01-03T17:41:28.857Z,2.19
2023-01-03T17:44:30.636Z,2.11
2023-01-03T17:47:52.061Z,2.03
2023-01-03T17:50:53.737Z,1.99
2023-01-03T17:53:55.943Z,1.96
2023-01-03T17:56:58.451Z,2.00
2023-01-03T18:00:00.228Z,1.99
2023-01-03T18:03:02.272Z,1.98
2023-01-03T18:06:06.918Z,1.94
2023-01-03T18:09:12.280Z,1.96
2023-01-03T18:12:18.316Z,1.97
2023-01-03T18:15:21.328Z,1.95
2023-01-03T18:18:23.965Z,1.94
2023-01-03T18:21:28.151Z,1.89
2023-01-03T18:24:31.233Z,1.81
2023-01-03T18:27:32.858Z,1.73
2023-01-03T18:30:34.705Z,1.68
2023-01-03T18:33:36.594Z,1.64
2023-01-03T18:36:43.190Z,1.60
2023-01-03T18:39:44.927Z,1.54
2023-01-03T18:43:05.677Z,1.48
2023-01-03T18:46:15.026Z,1.47
2023-01-03T18:49:16.876Z,1.46
2023-01-03T18:52:36.852Z,1.42
2023-01-03T18:55:38.495Z,1.34
2023-01-03T18:58:40.144Z,1.33
2023-01-03T19:01:41.774Z,1.29
2023-01-03T19:04:49.217Z,1.25
2023-01-03T19:07:53.027Z,1.25
2023-01-03T19:10:54.643Z,1.22
2023-01-03T19:13:59.951Z,1.20
2023-01-03T19:17:01.536Z,1.24
2023-01-03T19:20:03.212Z,1.25
2023-01-03T19:23:04.758Z,1.27
2023-01-03T19:26:06.445Z,1.28
2023-01-03T19:29:10.671Z,1.30
2023-01-03T19:32:19.603Z,1.33
2023-01-03T19:35:22.026Z,1.30
2023-01-03T19:38:23.695Z,1.30
2023-01-03T19:41:25.240Z,1.34
2023-01-03T19:44:26.822Z,1.34
2023-01-03T19:47:28.489Z,1.35
2023-01-03T19:50:34.302Z,1.32
2023-01-03T19:53:35.893Z,1.36
2023-01-03T19:56:37.419Z,1.38
2023-01-03T19:59:39.038Z,1.39
2023-01-03T20:02:41.074Z,1.44
2023-01-03T20:05:42.866Z,1.46
2023-01-03T20:08:44.430Z,1.43
2023-01-03T20:11:50.563Z,1.43
2023-01-03T20:14:52.726Z,1.43
2023-01-03T20:17:54.468Z,1.46
2023-01-03T20:20:58.996Z,1.44
2023-01-03T20:24:01.735Z,1.44
2023-01-03T20:27:03.195Z,1.40
2023-01-03T20:30:13.573Z,1.38
2023-01-03T20:33:15.125Z,1.42
2023-01-03T20:36:41.744Z,1.43
2023-01-03T20:39:43.425Z,1.39
2023-01-03T20:42:45.214Z,1.43
2023-01-03T20:45:47.585Z,1.48
2023-01-03T20:49:00.157Z,1.48
2023-01-03T20:52:01.707Z,1.45
2023-01-03T20:55:03.297Z,1.44
2023-01-03T20:58:04.847Z,1.48
2023-01-03T21:01:09.558Z,1.50
2023-01-03T21:04:12.460Z,1.54
2023-01-03T21:07:48.150Z,1.53
2023-01-03T21:10:52.940Z,1.57
2023-01-03T21:13:55.414Z,1.42
2023-01-03T21:16:57.098Z,1.47
2023-01-03T21:19:58.682Z,1.52
2023-01-03T21:23:00.243Z,1.40
2023-01-03T21:26:01.894Z,1.50
2023-01-03T21:29:03.531Z,1.46
2023-01-03T21:32:05.622Z,1.50
2023-01-03T21:35:09.577Z,1.45
2023-01-03T21:38:11.167Z,1.56
2023-01-03T21:41:20.363Z,1.42
2023-01-03T21:44:21.932Z,1.41
2023-01-03T21:47:23.534Z,1.39
2023-01-03T21:50:25.385Z,1.37
2023-01-03T21:53:27.005Z,1.35
2023-01-03T21:56:28.529Z,1.33
2023-01-03T21:59:30.320Z,1.32
2023-01-03T22:02:53.405Z,1.29
2023-01-03T22:06:10.785Z,1.31
2023-01-03T22:09:32.281Z,1.29
2023-01-03T22:12:33.827Z,1.23
2023-01-03T22:15:36.425Z,1.10
2023-01-03T22:18:37.940Z,1.12
2023-01-03T22:21:39.447Z,1.15
2023-01-03T22:24:40.965Z,1.21
2023-01-03T22:27:43.185Z,1.24
2023-01-03T22:30:44.734Z,1.21
2023-01-03T22:33:46.944Z,1.24
2023-01-03T22:36:48.470Z,1.15
2023-01-03T22:39:49.971Z,1.21
2023-01-03T22:42:51.488Z,1.14
2023-01-03T22:45:53.042Z,1.12
2023-01-03T22:48:54.925Z,1.05
2023-01-03T22:51:56.490Z,1.08
2023-01-03T22:54:58.368Z,1.05
2023-01-03T22:57:59.968Z,1.09
2023-01-03T23:01:08.552Z,1.11
2023-01-03T23:04:10.332Z,1.14
2023-01-03T23:07:11.992Z,1.13
2023-01-03T23:10:13.580Z,1.12
2023-01-03T23:13:15.119Z,1.15
2023-01-03T23:16:16.687Z,1.12
2023-01-03T23:19:19.979Z,1.03
2023-01-03T23:22:21.509Z,1.06
2023-01-03T23:25:23.173Z,0.97
2023-01-03T23:28:24.686Z,0.96
2023-01-03T23:31:27.460Z,0.96
2023-01-03T23:34:29.899Z,0.91
2023-01-03T23:37:31.748Z,0.89
2023-01-03T23:40:33.276Z,0.75
2023-01-03T23:43:34.793Z,0.72
2023-01-03T23:46:36.349Z,0.68
2023-01-03T23:49:37.856Z,0.69
2023-01-03T23:52:39.370Z,0.59
2023-01-03T23:55:40.883Z,0.56
2023-01-03T23:58:42.459Z,0.59
